Time;durP1;ratioP1;P1;durP2;ratioP2;P2;SDS_P1;SDS_P2;PMS_P1;PMS_P2;Temp;Humidity;BMP_temperature;BMP_pressure;BME280_temperature;BME280_humidity;BME280_pressure;Samples;Min_cycle;Max_cycle;Signal;HPM_P1;HPM_P2
2024/03/09 00:00:04;;;;;;;;;;;;;;;;;;5078417;28;19940;-58
2024/03/09 00:02:30;;;;;;;;;;;;;;;;;;5076500;28;19942;-58
2024/03/09 00:04:55;;;;;;;;;;;;;;;;;;5076695;28;20094;-59
2024/03/09 00:07:20;;;;;;;;;;;;;;;;;;5073048;28;19954;-59
2024/03/09 00:09:45;;;;;;;;;;;;;;;;;;5075059;28;19920;-59
2024/03/09 00:12:14;;;;;;;;;;;;;;;;;;5074994;28;19920;-58
2024/03/09 00:14:40;;;;;;;;;;;;;;;;;;5078310;28;19912;-60
2024/03/09 00:17:06;;;;;;;;;;;;;;;;;;5082818;28;19982;-58
2024/03/09 00:19:31;;;;;;;;;;;;;;;;;;5075992;28;19920;-58
2024/03/09 00:21:57;;;;;;;;;;;;;;;;;;5089161;28;19923;-59
2024/03/09 00:24:22;;;;;;;;;;;;;;;;;;5072738;28;19939;-59
2024/03/09 00:26:47;;;;;;;;;;;;;;;;;;5076559;28;19966;-58
2024/03/09 00:29:12;;;;;;;;;;;;;;;;;;5073265;28;20019;-58
2024/03/09 00:31:38;;;;;;;;;;;;;;;;;;5075835;28;19916;-57
2024/03/09 00:34:03;;;;;;;;;;;;;;;;;;5075255;28;19924;-59
2024/03/09 00:36:29;;;;;;;;;;;;;;;;;;5075172;28;19950;-59
2024/03/09 00:38:54;;;;;;;;;;;;;;;;;;5076562;28;20360;-59
2024/03/09 00:41:19;;;;;;;;;;;;;;;;;;5094483;28;19954;-59
2024/03/09 00:43:46;;;;;;;;;;;;;;;;;;5100481;28;19919;-58
2024/03/09 00:46:11;;;;;;;;;;;;;;;;;;5089861;28;19916;-58
2024/03/09 00:48:36;;;;;;;;;;;;;;;;;;5090801;28;20089;-63
2024/03/09 00:51:01;;;;;;;;;;;;;;;;;;5079785;28;20292;-63
2024/03/09 00:53:26;;;;;;;;;;;;;;;;;;5089661;28;20002;-63
2024/03/09 00:55:51;;;;;;;;;;;;;;;;;;5085675;28;20327;-64
2024/03/09 00:58:19;;;;;;;;;;;;;;;;;;5090293;28;19927;-63
2024/03/09 01:00:47;;;;;;;;;;;;;;;;;;5086415;28;19923;-63
2024/03/09 01:03:13;;;;;;;;;;;;;;;;;;5088174;28;19912;-61
2024/03/09 01:05:38;;;;;;;;;;;;;;;;;;5085682;28;19970;-63
2024/03/09 01:08:03;;;;;;;;;;;;;;;;;;5086808;28;19920;-62
2024/03/09 01:10:28;;;;;;;;;;;;;;;;;;5087460;28;19920;-62
2024/03/09 01:12:55;;;;;;;;;;;;;;;;;;5087573;28;19912;-62
2024/03/09 01:15:20;;;;;;;;;;;;;;;;;;5086179;28;19967;-66
2024/03/09 01:17:45;;;;;;;;;;;;;;;;;;5087975;28;19963;-63
2024/03/09 01:20:12;;;;;;;;;;;;;;;;;;5084680;28;19920;-63
2024/03/09 01:22:37;;;;;;;;;;;;;;;;;;5086861;28;20015;-63
2024/03/09 01:25:02;;;;;;;;;;;;;;;;;;5088254;28;19933;-63
2024/03/09 01:27:28;;;;;;;;;;;;;;;;;;5083061;28;20007;-63
2024/03/09 01:29:58;;;;;;;;;;;;;;;;;;5084356;28;19916;-63
2024/03/09 01:32:24;;;;;;;;;;;;;;;;;;5085173;28;19916;-64
2024/03/09 01:34:50;;;;;;;;;;;;;;;;;;5090959;28;19912;-63
2024/03/09 01:37:19;;;;;;;;;;;;;;;;;;5080863;28;19958;-63
2024/03/09 01:39:46;;;;;;;;;;;;;;;;;;5086117;28;20400;-63
2024/03/09 01:42:12;;;;;;;;;;;;;;;;;;5082871;28;20547;-61
2024/03/09 01:44:37;;;;;;;;;;;;;;;;;;5086195;28;19995;-63
2024/03/09 01:47:02;;;;;;;;;;;;;;;;;;5084861;28;21169;-63
2024/03/09 01:49:28;;;;;;;;;;;;;;;;;;5089383;28;19912;-64
2024/03/09 01:51:55;;;;;;;;;;;;;;;;;;5081901;28;20562;-64
2024/03/09 01:54:23;;;;;;;;;;;;;;;;;;5087263;28;20003;-62
2024/03/09 01:56:48;;;;;;;;;;;;;;;;;;5086686;28;20311;-63
2024/03/09 01:59:14;;;;;;;;;;;;;;;;;;5087658;28;19926;-63
2024/03/09 02:01:39;;;;;;;;;;;;;;;;;;5086841;28;19950;-63
2024/03/09 02:04:04;;;;;;;;;;;;;;;;;;5087536;28;19920;-63
2024/03/09 02:06:31;;;;;;;;;;;;;;;;;;5085478;28;20046;-63
2024/03/09 02:08:56;;;;;;;;;;;;;;;;;;5083534;28;19916;-63
2024/03/09 02:11:22;;;;;;;;;;;;;;;;;;5086930;28;19916;-61
2024/03/09 02:13:47;;;;;;;;;;;;;;;;;;5081695;28;19912;-63
2024/03/09 02:16:12;;;;;;;;;;;;;;;;;;5080251;28;19916;-63
2024/03/09 02:18:37;;;;;;;;;;;;;;;;;;5083738;28;19908;-63
2024/03/09 02:21:03;;;;;;;;;;;;;;;;;;5086178;28;20405;-63
2024/03/09 02:23:31;;;;;;;;;;;;;;;;;;5080630;28;20366;-63
2024/03/09 02:25:57;;;;;;;;;;;;;;;;;;5082575;28;20107;-64
2024/03/09 02:28:22;;;;;;;;;;;;;;;;;;5081388;28;19916;-63
2024/03/09 02:30:48;;;;;;;;;;;;;;;;;;5082032;28;19920;-63
2024/03/09 02:33:13;;;;;;;;;;;;;;;;;;5087529;28;19912;-63
2024/03/09 02:35:38;;;;;;;;;;;;;;;;;;5085142;28;20361;-64
2024/03/09 02:38:04;;;;;;;;;;;;;;;;;;5079880;28;19912;-63
2024/03/09 02:40:29;;;;;;;;;;;;;;;;;;5091407;28;20324;-63
2024/03/09 02:43:05;;;;;;;;;;;;;;;;;;5083346;28;20336;-63
2024/03/09 02:45:30;;;;;;;;;;;;;;;;;;5079877;28;19999;-63
2024/03/09 02:47:56;;;;;;;;;;;;;;;;;;5085492;28;20342;-64
2024/03/09 02:50:23;;;;;;;;;;;;;;;;;;5082419;28;20003;-63
2024/03/09 02:52:48;;;;;;;;;;;;;;;;;;5081107;28;19967;-63
2024/03/09 02:55:14;;;;;;;;;;;;;;;;;;5087619;28;20250;-63
2024/03/09 02:57:40;;;;;;;;;;;;;;;;;;5084857;28;19921;-63
2024/03/09 03:00:07;;;;;;;;;;;;;;;;;;5083733;28;20008;-63
2024/03/09 03:05:16;;;;;;;;;;;;;;;;;;5083816;28;20129;-62
2024/03/09 03:07:42;;;;;;;;;;;;;;;;;;5081951;28;19999;-63
2024/03/09 03:10:08;;;;;;;;;;;;;;;;;;5087875;28;19912;-58
2024/03/09 03:12:33;;;;;;;;;;;;;;;;;;5084403;28;19912;-61
2024/03/09 03:14:58;;;;;;;;;;;;;;;;;;5079896;28;20376;-58
2024/03/09 03:17:23;;;;;;;;;;;;;;;;;;5084619;28;20541;-58
2024/03/09 03:19:48;;;;;;;;;;;;;;;;;;5078596;28;19916;-58
2024/03/09 03:22:14;;;;;;;;;;;;;;;;;;5084795;28;19916;-58
2024/03/09 03:24:39;;;;;;;;;;;;;;;;;;5085095;28;19969;-58
2024/03/09 03:27:04;;;;;;;;;;;;;;;;;;5086720;28;19912;-58
2024/03/09 03:29:29;;;;;;;;;;;;;;;;;;5082157;28;19912;-58
2024/03/09 03:32:00;;;;;;;;;;;;;;;;;;5091342;28;19924;-59
2024/03/09 03:34:25;;;;;;;;;;;;;;;;;;5083743;28;20327;-58
2024/03/09 03:36:50;;;;;;;;;;;;;;;;;;5084620;28;19918;-58
2024/03/09 03:39:15;;;;;;;;;;;;;;;;;;5090381;28;19916;-58
2024/03/09 03:41:42;;;;;;;;;;;;;;;;;;5087589;28;19981;-58
2024/03/09 03:44:07;;;;;;;;;;;;;;;;;;5084008;28;19923;-59
2024/03/09 03:46:32;;;;;;;;;;;;;;;;;;5082061;28;19912;-60
2024/03/09 03:48:57;;;;;;;;;;;;;;;;;;5087636;28;19920;-58
2024/03/09 03:51:22;;;;;;;;;;;;;;;;;;5086259;28;19990;-59
2024/03/09 03:53:47;;;;;;;;;;;;;;;;;;5090398;28;19920;-58
2024/03/09 03:56:12;;;;;;;;;;;;;;;;;;5085175;28;20392;-59
2024/03/09 03:58:37;;;;;;;;;;;;;;;;;;5082680;28;20357;-59
2024/03/09 04:01:02;;;;;;;;;;;;;;;;;;5085089;28;20384;-65
2024/03/09 04:03:31;;;;;;;;;;;;;;;;;;5085570;28;20037;-58
2024/03/09 04:05:56;;;;;;;;;;;;;;;;;;5086954;28;19912;-59
2024/03/09 04:08:21;;;;;;;;;;;;;;;;;;5086898;28;19935;-58
2024/03/09 04:10:48;;;;;;;;;;;;;;;;;;5081192;28;19926;-59
2024/03/09 04:13:13;;;;;;;;;;;;;;;;;;5082449;28;19913;-58
2024/03/09 04:15:39;;;;;;;;;;;;;;;;;;5087621;28;19966;-59
2024/03/09 04:18:04;;;;;;;;;;;;;;;;;;5082282;28;20300;-58
2024/03/09 04:20:33;;;;;;;;;;;;;;;;;;5081967;28;19927;-58
2024/03/09 04:23:01;;;;;;;;;;;;;;;;;;5080753;28;19970;-58
2024/03/09 04:25:27;;;;;;;;;;;;;;;;;;5082185;28;19958;-58
2024/03/09 04:27:55;;;;;;;;;;;;;;;;;;5086934;28;19916;-59
2024/03/09 04:30:22;;;;;;;;;;;;;;;;;;5088235;28;19920;-58
2024/03/09 04:32:47;;;;;;;;;;;;;;;;;;5084601;28;19920;-58
2024/03/09 04:35:12;;;;;;;;;;;;;;;;;;5087903;28;19975;-58
2024/03/09 04:37:37;;;;;;;;;;;;;;;;;;5087360;28;20023;-58
2024/03/09 04:40:14;;;;;;;;;;;;;;;;;;5085931;28;19957;-59
2024/03/09 04:42:39;;;;;;;;;;;;;;;;;;5086558;28;19966;-58
2024/03/09 04:45:05;;;;;;;;;;;;;;;;;;5078282;28;19940;-58
2024/03/09 04:47:32;;;;;;;;;;;;;;;;;;5079022;28;19919;-58
2024/03/09 04:49:58;;;;;;;;;;;;;;;;;;5086480;28;20288;-59
2024/03/09 04:52:23;;;;;;;;;;;;;;;;;;5080917;28;20715;-58
2024/03/09 04:54:48;;;;;;;;;;;;;;;;;;5086737;28;19958;-58
2024/03/09 04:57:24;;;;;;;;;;;;;;;;;;5086199;28;20296;-59
2024/03/09 04:59:49;;;;;;;;;;;;;;;;;;5077049;28;19946;-58
2024/03/09 05:02:14;;;;;;;;;;;;;;;;;;5080600;28;19924;-58
2024/03/09 05:04:39;;;;;;;;;;;;;;;;;;5084345;28;20018;-59
2024/03/09 05:07:04;;;;;;;;;;;;;;;;;;5084935;28;19969;-59
2024/03/09 05:09:30;;;;;;;;;;;;;;;;;;5087903;28;19987;-58
2024/03/09 05:11:56;;;;;;;;;;;;;;;;;;5084529;28;19969;-59
2024/03/09 05:14:21;;;;;;;;;;;;;;;;;;5090550;28;19920;-58
2024/03/09 05:16:47;;;;;;;;;;;;;;;;;;5075082;28;19916;-60
2024/03/09 05:19:12;;;;;;;;;;;;;;;;;;5083813;28;19920;-58
2024/03/09 05:21:38;;;;;;;;;;;;;;;;;;5084560;28;19917;-58
2024/03/09 05:24:04;;;;;;;;;;;;;;;;;;5078360;28;19926;-58
2024/03/09 05:26:32;;;;;;;;;;;;;;;;;;5084127;28;19916;-58
2024/03/09 05:28:57;;;;;;;;;;;;;;;;;;5081128;28;20455;-58
2024/03/09 05:31:23;;;;;;;;;;;;;;;;;;5075933;28;20444;-58
2024/03/09 05:33:48;;;;;;;;;;;;;;;;;;5080518;28;20015;-59
2024/03/09 05:36:13;;;;;;;;;;;;;;;;;;5085905;28;20010;-58
2024/03/09 05:38:38;;;;;;;;;;;;;;;;;;5077947;28;19947;-58
2024/03/09 05:41:07;;;;;;;;;;;;;;;;;;5079406;28;19924;-63
2024/03/09 05:43:32;;;;;;;;;;;;;;;;;;5065036;28;20340;-63
2024/03/09 05:45:58;;;;;;;;;;;;;;;;;;5081266;28;20630;-65
2024/03/09 05:48:23;;;;;;;;;;;;;;;;;;5082495;28;20003;-64
2024/03/09 05:50:48;;;;;;;;;;;;;;;;;;5084734;28;19916;-64
2024/03/09 05:53:14;;;;;;;;;;;;;;;;;;5080351;28;19917;-64
2024/03/09 05:55:39;;;;;;;;;;;;;;;;;;5081218;28;19912;-64
2024/03/09 05:58:07;;;;;;;;;;;;;;;;;;5087250;28;19912;-61
2024/03/09 06:00:32;;;;;;;;;;;;;;;;;;5082411;28;19985;-63
2024/03/09 06:02:57;;;;;;;;;;;;;;;;;;5085713;28;19916;-64
2024/03/09 06:05:23;;;;;;;;;;;;;;;;;;5085036;28;19924;-64
2024/03/09 06:07:48;;;;;;;;;;;;;;;;;;5086600;28;19919;-64
2024/03/09 06:10:14;;;;;;;;;;;;;;;;;;5079315;28;19938;-64
2024/03/09 06:12:39;;;;;;;;;;;;;;;;;;5084709;28;19919;-64
2024/03/09 06:15:05;;;;;;;;;;;;;;;;;;5079384;28;19919;-64
2024/03/09 06:17:30;;;;;;;;;;;;;;;;;;5082220;28;19912;-64
2024/03/09 06:19:56;;;;;;;;;;;;;;;;;;5078019;28;19921;-65
2024/03/09 06:22:21;;;;;;;;;;;;;;;;;;5086249;28;20253;-64
2024/03/09 06:24:46;;;;;;;;;;;;;;;;;;5084107;28;19994;-64
2024/03/09 06:27:13;;;;;;;;;;;;;;;;;;5081091;28;19920;-63
2024/03/09 06:29:38;;;;;;;;;;;;;;;;;;5084344;28;19920;-64
2024/03/09 06:32:05;;;;;;;;;;;;;;;;;;5081438;28;19920;-65
2024/03/09 06:34:30;;;;;;;;;;;;;;;;;;5091349;28;19957;-64
2024/03/09 06:36:55;;;;;;;;;;;;;;;;;;5095732;28;19967;-64
2024/03/09 06:39:21;;;;;;;;;;;;;;;;;;5092931;28;19912;-65
2024/03/09 06:41:47;;;;;;;;;;;;;;;;;;5090767;28;20399;-63
2024/03/09 06:44:14;;;;;;;;;;;;;;;;;;5088824;28;19920;-63
2024/03/09 06:46:39;;;;;;;;;;;;;;;;;;5083309;28;19912;-63
2024/03/09 06:49:05;;;;;;;;;;;;;;;;;;5085609;28;19985;-63
2024/03/09 06:51:30;;;;;;;;;;;;;;;;;;5086378;28;19973;-58
2024/03/09 06:53:55;;;;;;;;;;;;;;;;;;5086996;28;20288;-58
2024/03/09 06:56:20;;;;;;;;;;;;;;;;;;5092848;28;20007;-58
2024/03/09 06:58:47;;;;;;;;;;;;;;;;;;5093986;28;19920;-58
2024/03/09 07:01:19;;;;;;;;;;;;;;;;;;5090618;28;19916;-57
2024/03/09 07:03:45;;;;;;;;;;;;;;;;;;5093649;28;19916;-57
2024/03/09 07:06:10;;;;;;;;;;;;;;;;;;5093245;28;19922;-58
2024/03/09 07:08:35;;;;;;;;;;;;;;;;;;5094423;28;20440;-58
2024/03/09 07:11:01;;;;;;;;;;;;;;;;;;5094466;28;20759;-58
2024/03/09 07:13:26;;;;;;;;;;;;;;;;;;5093573;28;19917;-59
2024/03/09 07:15:52;;;;;;;;;;;;;;;;;;5093797;28;19924;-59
2024/03/09 07:18:17;;;;;;;;;;;;;;;;;;5090156;28;19912;-61
2024/03/09 07:20:44;;;;;;;;;;;;;;;;;;5093566;28;19916;-58
2024/03/09 07:23:09;;;;;;;;;;;;;;;;;;5091699;28;19912;-58
2024/03/09 07:25:35;;;;;;;;;;;;;;;;;;5088917;28;19912;-58
2024/03/09 07:28:01;;;;;;;;;;;;;;;;;;5094614;28;19916;-58
2024/03/09 07:30:26;;;;;;;;;;;;;;;;;;5090201;28;19925;-57
2024/03/09 07:32:53;;;;;;;;;;;;;;;;;;5090813;28;20057;-58
2024/03/09 07:35:18;;;;;;;;;;;;;;;;;;5093222;28;19927;-57
2024/03/09 07:37:43;;;;;;;;;;;;;;;;;;5089430;28;19912;-58
2024/03/09 07:40:08;;;;;;;;;;;;;;;;;;5084147;28;19919;-58
2024/03/09 07:42:35;;;;;;;;;;;;;;;;;;5095556;28;20395;-58
2024/03/09 07:45:01;;;;;;;;;;;;;;;;;;5091182;28;19954;-59
2024/03/09 07:47:26;;;;;;;;;;;;;;;;;;5089549;28;20328;-58
2024/03/09 07:49:51;;;;;;;;;;;;;;;;;;5094226;28;19913;-58
2024/03/09 07:52:16;;;;;;;;;;;;;;;;;;5090233;28;19923;-58
2024/03/09 07:54:41;;;;;;;;;;;;;;;;;;5093649;28;20325;-58
2024/03/09 07:57:08;;;;;;;;;;;;;;;;;;5091555;28;20314;-58
2024/03/09 07:59:33;;;;;;;;;;;;;;;;;;5094588;28;19919;-65
2024/03/09 08:01:58;;;;;;;;;;;;;;;;;;5091992;28;19919;-66
2024/03/09 08:04:23;;;;;;;;;;;;;;;;;;5092769;28;19916;-66
2024/03/09 08:06:49;;;;;;;;;;;;;;;;;;5089389;28;19959;-65
2024/03/09 08:09:14;;;;;;;;;;;;;;;;;;5088517;28;20410;-67
2024/03/09 08:11:40;;;;;;;;;;;;;;;;;;5089208;28;19920;-65
2024/03/09 08:14:05;;;;;;;;;;;;;;;;;;5088087;28;19928;-66
2024/03/09 08:16:32;;;;;;;;;;;;;;;;;;5089013;28;20006;-66
2024/03/09 08:18:58;;;;;;;;;;;;;;;;;;5087443;28;19924;-64
2024/03/09 08:21:23;;;;;;;;;;;;;;;;;;5090230;28;19912;-65
2024/03/09 08:23:48;;;;;;;;;;;;;;;;;;5087114;28;19920;-65
2024/03/09 08:26:14;;;;;;;;;;;;;;;;;;5089209;28;19927;-65
2024/03/09 08:28:39;;;;;;;;;;;;;;;;;;5091230;28;19923;-65
2024/03/09 08:31:06;;;;;;;;;;;;;;;;;;5082923;28;20046;-65
2024/03/09 08:33:31;;;;;;;;;;;;;;;;;;5088381;28;19924;-64
2024/03/09 08:35:58;;;;;;;;;;;;;;;;;;5084796;28;20372;-64
2024/03/09 08:38:23;;;;;;;;;;;;;;;;;;5086237;28;19927;-65
2024/03/09 08:40:49;;;;;;;;;;;;;;;;;;5088714;28;20296;-64
2024/03/09 08:43:14;;;;;;;;;;;;;;;;;;5090163;28;19923;-64
2024/03/09 08:45:42;;;;;;;;;;;;;;;;;;5086646;28;19908;-66
2024/03/09 08:48:08;;;;;;;;;;;;;;;;;;5089034;28;19912;-65
2024/03/09 08:50:34;;;;;;;;;;;;;;;;;;5087855;28;20014;-64
2024/03/09 08:53:00;;;;;;;;;;;;;;;;;;5091194;28;19943;-65
2024/03/09 08:55:25;;;;;;;;;;;;;;;;;;5087931;28;19998;-64
2024/03/09 08:57:50;;;;;;;;;;;;;;;;;;5089456;28;19940;-66
2024/03/09 09:00:19;;;;;;;;;;;;;;;;;;5087967;28;19951;-65
2024/03/09 09:02:46;;;;;;;;;;;;;;;;;;5089675;28;19912;-66
2024/03/09 09:05:11;;;;;;;;;;;;;;;;;;5085900;28;19985;-65
2024/03/09 09:07:37;;;;;;;;;;;;;;;;;;5089694;28;19955;-66
2024/03/09 09:10:02;;;;;;;;;;;;;;;;;;5086493;28;19925;-64
2024/03/09 09:12:29;;;;;;;;;;;;;;;;;;5086747;28;19916;-63
2024/03/09 09:14:56;;;;;;;;;;;;;;;;;;5088972;28;19938;-63
2024/03/09 09:17:21;;;;;;;;;;;;;;;;;;5086164;28;19912;-63
2024/03/09 09:19:48;;;;;;;;;;;;;;;;;;5089012;28;19916;-63
2024/03/09 09:22:13;;;;;;;;;;;;;;;;;;5088242;28;20002;-62
2024/03/09 09:24:38;;;;;;;;;;;;;;;;;;5089592;28;20019;-63
2024/03/09 09:27:04;;;;;;;;;;;;;;;;;;5087846;28;19912;-62
2024/03/09 09:29:29;;;;;;;;;;;;;;;;;;5086946;28;19920;-65
2024/03/09 09:31:54;;;;;;;;;;;;;;;;;;5086240;28;19975;-63
2024/03/09 09:34:19;;;;;;;;;;;;;;;;;;5088394;28;20381;-63
2024/03/09 09:36:45;;;;;;;;;;;;;;;;;;5080918;28;19951;-63
2024/03/09 09:39:13;;;;;;;;;;;;;;;;;;5085464;28;19912;-63
2024/03/09 09:41:39;;;;;;;;;;;;;;;;;;5083340;28;19924;-64
2024/03/09 09:44:08;;;;;;;;;;;;;;;;;;5081553;28;19912;-63
2024/03/09 09:46:34;;;;;;;;;;;;;;;;;;5083861;28;19924;-64
2024/03/09 09:49:01;;;;;;;;;;;;;;;;;;5083280;28;19935;-63
2024/03/09 09:51:26;;;;;;;;;;;;;;;;;;5081263;28;19998;-64
2024/03/09 09:53:54;;;;;;;;;;;;;;;;;;5083862;28;19996;-63
2024/03/09 09:56:20;;;;;;;;;;;;;;;;;;5083352;28;19919;-63
2024/03/09 09:58:47;;;;;;;;;;;;;;;;;;5088971;28;19912;-64
2024/03/09 10:01:12;;;;;;;;;;;;;;;;;;5083019;28;19912;-63
2024/03/09 10:03:37;;;;;;;;;;;;;;;;;;5084493;28;19998;-62
2024/03/09 10:06:02;;;;;;;;;;;;;;;;;;5085388;28;19963;-64
2024/03/09 10:08:27;;;;;;;;;;;;;;;;;;5079898;28;19923;-63
2024/03/09 10:10:52;;;;;;;;;;;;;;;;;;5079990;28;19931;-64
2024/03/09 10:13:18;;;;;;;;;;;;;;;;;;5081772;28;19923;-63
2024/03/09 10:15:44;;;;;;;;;;;;;;;;;;5081643;28;19936;-62
2024/03/09 10:18:09;;;;;;;;;;;;;;;;;;5081486;28;19920;-63
2024/03/09 10:20:38;;;;;;;;;;;;;;;;;;5079421;28;20238;-65
2024/03/09 10:23:04;;;;;;;;;;;;;;;;;;5082356;28;19916;-64
2024/03/09 10:25:30;;;;;;;;;;;;;;;;;;5080707;28;19996;-63
2024/03/09 10:27:55;;;;;;;;;;;;;;;;;;5091194;28;20483;-65
2024/03/09 10:30:23;;;;;;;;;;;;;;;;;;5081837;28;19924;-63
2024/03/09 10:32:48;;;;;;;;;;;;;;;;;;5076882;28;19916;-63
2024/03/09 10:35:14;;;;;;;;;;;;;;;;;;5081755;28;19962;-63
2024/03/09 10:37:39;;;;;;;;;;;;;;;;;;5081107;28;19962;-64
2024/03/09 10:40:06;;;;;;;;;;;;;;;;;;5079455;28;20562;-64
2024/03/09 10:42:32;;;;;;;;;;;;;;;;;;5077484;28;19936;-64
2024/03/09 10:44:57;;;;;;;;;;;;;;;;;;5083300;28;19962;-65
2024/03/09 10:47:25;;;;;;;;;;;;;;;;;;5078250;28;19920;-64
2024/03/09 10:49:50;;;;;;;;;;;;;;;;;;5082385;28;19924;-65
2024/03/09 10:52:15;;;;;;;;;;;;;;;;;;5080236;28;20655;-64
2024/03/09 10:54:43;;;;;;;;;;;;;;;;;;5089489;28;20008;-64
2024/03/09 10:57:10;;;;;;;;;;;;;;;;;;5087648;28;19916;-64
2024/03/09 10:59:36;;;;;;;;;;;;;;;;;;5079486;28;20019;-64
2024/03/09 11:02:02;;;;;;;;;;;;;;;;;;5079999;28;20296;-65
2024/03/09 11:04:27;;;;;;;;;;;;;;;;;;5081611;28;20440;-64
2024/03/09 11:06:55;;;;;;;;;;;;;;;;;;5082991;28;20011;-64
2024/03/09 11:09:29;;;;;;;;;;;;;;;;;;5083305;28;19919;-65
2024/03/09 11:11:56;;;;;;;;;;;;;;;;;;5083175;28;19919;-63
2024/03/09 11:14:22;;;;;;;;;;;;;;;;;;5083035;28;19924;-65
2024/03/09 11:16:50;;;;;;;;;;;;;;;;;;5083686;28;19922;-65
2024/03/09 11:19:15;;;;;;;;;;;;;;;;;;5077953;28;19946;-66
2024/03/09 11:21:40;;;;;;;;;;;;;;;;;;5080534;28;19912;-65
2024/03/09 11:24:11;;;;;;;;;;;;;;;;;;5079298;28;19920;-65
2024/03/09 11:26:38;;;;;;;;;;;;;;;;;;5081200;28;19916;-65
2024/03/09 11:29:04;;;;;;;;;;;;;;;;;;5079135;28;19912;-64
2024/03/09 11:31:29;;;;;;;;;;;;;;;;;;5078142;28;20567;-59
2024/03/09 11:33:57;;;;;;;;;;;;;;;;;;5077762;28;20456;-60
2024/03/09 11:36:22;;;;;;;;;;;;;;;;;;5075341;28;20045;-60
2024/03/09 11:38:47;;;;;;;;;;;;;;;;;;5079332;28;20289;-58
2024/03/09 11:41:13;;;;;;;;;;;;;;;;;;5081000;28;19928;-65
2024/03/09 11:43:40;;;;;;;;;;;;;;;;;;5083284;28;19917;-65
2024/03/09 11:46:05;;;;;;;;;;;;;;;;;;5084229;28;20285;-64
2024/03/09 11:48:30;;;;;;;;;;;;;;;;;;5082041;28;20454;-64
2024/03/09 11:50:58;;;;;;;;;;;;;;;;;;5084642;28;20489;-65
2024/03/09 11:53:23;;;;;;;;;;;;;;;;;;5086432;28;19920;-65
2024/03/09 11:55:48;;;;;;;;;;;;;;;;;;5086890;28;19916;-62
2024/03/09 11:58:15;;;;;;;;;;;;;;;;;;5088393;28;19922;-64
2024/03/09 12:00:41;;;;;;;;;;;;;;;;;;5082687;28;19923;-65
2024/03/09 12:03:07;;;;;;;;;;;;;;;;;;5085177;28;19916;-64
2024/03/09 12:05:32;;;;;;;;;;;;;;;;;;5084196;28;20308;-63
2024/03/09 12:07:57;;;;;;;;;;;;;;;;;;5084710;28;20368;-64
2024/03/09 12:10:24;;;;;;;;;;;;;;;;;;5086170;28;20469;-63
2024/03/09 12:12:50;;;;;;;;;;;;;;;;;;5086229;28;19920;-64
2024/03/09 12:15:16;;;;;;;;;;;;;;;;;;5087813;28;19916;-63
2024/03/09 12:17:42;;;;;;;;;;;;;;;;;;5083881;28;19916;-65
2024/03/09 12:20:07;;;;;;;;;;;;;;;;;;5086615;28;20413;-63
2024/03/09 12:22:32;;;;;;;;;;;;;;;;;;5089337;28;19920;-64
2024/03/09 12:24:57;;;;;;;;;;;;;;;;;;5090553;28;20292;-63
2024/03/09 12:27:24;;;;;;;;;;;;;;;;;;5085429;28;20369;-62
2024/03/09 12:29:49;;;;;;;;;;;;;;;;;;5088577;28;19920;-64
2024/03/09 12:32:14;;;;;;;;;;;;;;;;;;5091674;28;19924;-62
2024/03/09 12:34:40;;;;;;;;;;;;;;;;;;5086513;28;19919;-63
2024/03/09 12:37:05;;;;;;;;;;;;;;;;;;5086924;28;19958;-63
2024/03/09 12:39:30;;;;;;;;;;;;;;;;;;5084294;28;19918;-64
2024/03/09 12:41:56;;;;;;;;;;;;;;;;;;5084047;28;20021;-63
2024/03/09 12:44:24;;;;;;;;;;;;;;;;;;5087232;28;21658;-63
2024/03/09 12:46:49;;;;;;;;;;;;;;;;;;5084520;28;19912;-64
2024/03/09 12:49:14;;;;;;;;;;;;;;;;;;5079491;28;19926;-64
2024/03/09 12:51:40;;;;;;;;;;;;;;;;;;5082869;28;20304;-59
2024/03/09 12:54:08;;;;;;;;;;;;;;;;;;5088599;28;19920;-60
2024/03/09 12:56:34;;;;;;;;;;;;;;;;;;5090470;28;19912;-58
2024/03/09 12:59:00;;;;;;;;;;;;;;;;;;5085455;28;19919;-60
2024/03/09 13:01:25;;;;;;;;;;;;;;;;;;5088865;28;19912;-60
2024/03/09 13:03:51;;;;;;;;;;;;;;;;;;5083334;28;19923;-59
2024/03/09 13:06:17;;;;;;;;;;;;;;;;;;5082703;28;20097;-60
2024/03/09 13:08:43;;;;;;;;;;;;;;;;;;5084710;28;19923;-59
2024/03/09 13:11:09;;;;;;;;;;;;;;;;;;5080509;28;19924;-60
2024/03/09 13:13:34;;;;;;;;;;;;;;;;;;5079789;28;19916;-60
2024/03/09 13:15:59;;;;;;;;;;;;;;;;;;5085049;28;19916;-60
2024/03/09 13:18:24;;;;;;;;;;;;;;;;;;5082058;28;19916;-59
2024/03/09 13:20:52;;;;;;;;;;;;;;;;;;5081508;28;19921;-59
2024/03/09 13:23:19;;;;;;;;;;;;;;;;;;5082736;28;19923;-60
2024/03/09 13:25:46;;;;;;;;;;;;;;;;;;5083526;28;20276;-60
2024/03/09 13:28:11;;;;;;;;;;;;;;;;;;5078541;28;19916;-60
2024/03/09 13:30:39;;;;;;;;;;;;;;;;;;5078950;28;19927;-58
2024/03/09 13:33:04;;;;;;;;;;;;;;;;;;5079665;28;19923;-59
2024/03/09 13:35:29;;;;;;;;;;;;;;;;;;5077360;28;19935;-60
2024/03/09 13:37:56;;;;;;;;;;;;;;;;;;5082070;28;19939;-61
2024/03/09 13:40:25;;;;;;;;;;;;;;;;;;5082779;28;19920;-60
2024/03/09 13:42:51;;;;;;;;;;;;;;;;;;5078399;28;19963;-60
2024/03/09 13:45:17;;;;;;;;;;;;;;;;;;5082788;28;19966;-60
2024/03/09 13:47:42;;;;;;;;;;;;;;;;;;5080560;28;20292;-59
2024/03/09 13:50:07;;;;;;;;;;;;;;;;;;5078357;28;20365;-61
2024/03/09 13:52:33;;;;;;;;;;;;;;;;;;5081144;28;19921;-61
2024/03/09 13:54:58;;;;;;;;;;;;;;;;;;5073939;28;19917;-60
2024/03/09 13:57:27;;;;;;;;;;;;;;;;;;5079544;28;19916;-60
2024/03/09 13:59:54;;;;;;;;;;;;;;;;;;5078437;28;19965;-62
2024/03/09 14:02:21;;;;;;;;;;;;;;;;;;5077060;28;20004;-63
2024/03/09 14:04:47;;;;;;;;;;;;;;;;;;5076022;28;19966;-63
2024/03/09 14:07:12;;;;;;;;;;;;;;;;;;5083846;28;19916;-63
2024/03/09 14:09:44;;;;;;;;;;;;;;;;;;5073900;28;20002;-64
2024/03/09 14:12:10;;;;;;;;;;;;;;;;;;5080828;28;19920;-63
2024/03/09 14:14:38;;;;;;;;;;;;;;;;;;5085923;28;19922;-63
2024/03/09 14:17:07;;;;;;;;;;;;;;;;;;5083478;28;19916;-62
2024/03/09 14:19:32;;;;;;;;;;;;;;;;;;5085509;28;20448;-64
2024/03/09 14:21:58;;;;;;;;;;;;;;;;;;5083102;28;19926;-63
2024/03/09 14:24:23;;;;;;;;;;;;;;;;;;5079785;28;19924;-62
2024/03/09 14:26:48;;;;;;;;;;;;;;;;;;5083545;28;19916;-63
2024/03/09 14:29:14;;;;;;;;;;;;;;;;;;5082763;28;20398;-63
2024/03/09 14:31:39;;;;;;;;;;;;;;;;;;5081319;28;19920;-63
2024/03/09 14:34:04;;;;;;;;;;;;;;;;;;5078158;28;20304;-63
2024/03/09 14:36:31;;;;;;;;;;;;;;;;;;5083799;28;20419;-63
2024/03/09 14:38:56;;;;;;;;;;;;;;;;;;5080318;28;19923;-62
2024/03/09 14:41:23;;;;;;;;;;;;;;;;;;5084412;28;20389;-63
2024/03/09 14:43:48;;;;;;;;;;;;;;;;;;5080345;28;20304;-63
2024/03/09 14:46:13;;;;;;;;;;;;;;;;;;5080055;28;20632;-63
2024/03/09 14:48:39;;;;;;;;;;;;;;;;;;5079111;28;20335;-64
2024/03/09 14:51:09;;;;;;;;;;;;;;;;;;5085018;28;20065;-64
2024/03/09 14:53:34;;;;;;;;;;;;;;;;;;5083233;28;19973;-64
2024/03/09 14:56:01;;;;;;;;;;;;;;;;;;5083180;28;19995;-63
2024/03/09 14:58:26;;;;;;;;;;;;;;;;;;5084478;28;20059;-64
2024/03/09 15:00:54;;;;;;;;;;;;;;;;;;5077825;28;20002;-64
2024/03/09 15:03:28;;;;;;;;;;;;;;;;;;5080006;28;19913;-63
2024/03/09 15:05:55;;;;;;;;;;;;;;;;;;5083873;28;20277;-63
2024/03/09 15:08:21;;;;;;;;;;;;;;;;;;5080853;28;20292;-63
2024/03/09 15:10:49;;;;;;;;;;;;;;;;;;5077249;28;20403;-60
2024/03/09 15:13:16;;;;;;;;;;;;;;;;;;5086802;28;19977;-59
2024/03/09 15:15:43;;;;;;;;;;;;;;;;;;5084217;28;19927;-59
2024/03/09 15:18:11;;;;;;;;;;;;;;;;;;5086128;28;19915;-60
2024/03/09 15:20:36;;;;;;;;;;;;;;;;;;5086807;28;19923;-60
2024/03/09 15:23:02;;;;;;;;;;;;;;;;;;5082176;28;19916;-60
2024/03/09 15:25:30;;;;;;;;;;;;;;;;;;5082422;28;19912;-59
2024/03/09 15:27:55;;;;;;;;;;;;;;;;;;5084543;28;19944;-60
2024/03/09 15:30:21;;;;;;;;;;;;;;;;;;5080221;28;20009;-59
2024/03/09 15:32:46;;;;;;;;;;;;;;;;;;5083462;28;19920;-59
2024/03/09 15:35:15;;;;;;;;;;;;;;;;;;5084847;28;19912;-60
2024/03/09 15:37:40;;;;;;;;;;;;;;;;;;5080636;28;19920;-59
2024/03/09 15:40:12;;;;;;;;;;;;;;;;;;5080244;28;19976;-59
2024/03/09 15:42:37;;;;;;;;;;;;;;;;;;5076639;28;20422;-59
2024/03/09 15:45:03;;;;;;;;;;;;;;;;;;5087167;28;19921;-60
2024/03/09 15:47:29;;;;;;;;;;;;;;;;;;5071468;28;20007;-60
2024/03/09 15:49:54;;;;;;;;;;;;;;;;;;5082582;28;19923;-60
2024/03/09 15:52:19;;;;;;;;;;;;;;;;;;5079430;28;19924;-59
2024/03/09 15:54:44;;;;;;;;;;;;;;;;;;5081274;28;19921;-59
2024/03/09 15:57:12;;;;;;;;;;;;;;;;;;5077628;28;19923;-60
2024/03/09 15:59:37;;;;;;;;;;;;;;;;;;5078320;28;19916;-59
2024/03/09 16:02:02;;;;;;;;;;;;;;;;;;5083251;28;19923;-61
2024/03/09 16:04:27;;;;;;;;;;;;;;;;;;5082063;28;19916;-59
2024/03/09 16:06:53;;;;;;;;;;;;;;;;;;5075134;28;19920;-62
2024/03/09 16:09:20;;;;;;;;;;;;;;;;;;5084653;28;19916;-60
2024/03/09 16:11:47;;;;;;;;;;;;;;;;;;5083650;28;19920;-61
2024/03/09 16:14:12;;;;;;;;;;;;;;;;;;5083933;28;19935;-60
2024/03/09 16:16:40;;;;;;;;;;;;;;;;;;5084364;28;19920;-60
2024/03/09 16:19:05;;;;;;;;;;;;;;;;;;5088281;28;19912;-59
2024/03/09 16:21:34;;;;;;;;;;;;;;;;;;5080465;28;19916;-63
2024/03/09 16:23:59;;;;;;;;;;;;;;;;;;5085982;28;19912;-63
2024/03/09 16:26:24;;;;;;;;;;;;;;;;;;5080876;28;19918;-65
2024/03/09 16:28:49;;;;;;;;;;;;;;;;;;5086395;28;19982;-62
2024/03/09 16:31:18;;;;;;;;;;;;;;;;;;5083711;28;19928;-63
2024/03/09 16:33:43;;;;;;;;;;;;;;;;;;5082209;28;19924;-63
2024/03/09 16:36:09;;;;;;;;;;;;;;;;;;5079382;28;20676;-63
2024/03/09 16:38:34;;;;;;;;;;;;;;;;;;5085272;28;19942;-63